createdAt,value
2023-05-17T00:02:06.308Z,6.02
2023-05-17T00:04:33.651Z,5.93
2023-05-17T00:07:00.439Z,6.11
2023-05-17T00:09:27.046Z,6.09
2023-05-17T00:11:53.580Z,6.02
2023-05-17T00:14:20.341Z,6.03
2023-05-17T00:16:46.917Z,5.90
2023-05-17T00:19:13.806Z,5.96
2023-05-17T00:21:40.625Z,5.99
2023-05-17T00:24:07.296Z,5.95
2023-05-17T00:26:33.919Z,5.45
2023-05-17T00:29:00.660Z,5.61
2023-05-17T00:31:27.357Z,5.90
2023-05-17T00:33:53.980Z,5.92
2023-05-17T00:36:20.931Z,5.81
2023-05-17T00:38:47.528Z,5.94
2023-05-17T00:41:14.110Z,5.88
2023-05-17T00:43:40.959Z,5.91
2023-05-17T00:46:07.931Z,5.73
2023-05-17T00:48:35.890Z,5.83
2023-05-17T00:51:02.851Z,5.79
2023-05-17T00:53:30.175Z,5.94
2023-05-17T00:55:56.907Z,5.93
2023-05-17T00:58:24.154Z,5.88
2023-05-17T01:00:52.122Z,5.88
2023-05-17T01:03:18.941Z,5.64
2023-05-17T01:05:45.664Z,5.75
2023-05-17T01:08:12.223Z,5.80
2023-05-17T01:11:13.485Z,5.80
2023-05-17T01:13:56.640Z,5.83
2023-05-17T01:16:31.122Z,5.87
2023-05-17T01:19:19.728Z,5.83
2023-05-17T01:21:55.565Z,5.82
2023-05-17T01:24:57.784Z,5.85
2023-05-17T01:27:26.667Z,5.85
2023-05-17T01:29:56.308Z,5.85
2023-05-17T01:32:25.059Z,5.71
2023-05-17T01:34:52.141Z,5.71
2023-05-17T01:37:18.868Z,5.91
2023-05-17T01:39:46.535Z,5.95
2023-05-17T01:42:21.969Z,5.94
2023-05-17T01:45:18.588Z,5.88
2023-05-17T01:47:47.711Z,5.86
2023-05-17T01:50:17.518Z,5.75
2023-05-17T01:52:55.240Z,5.69
2023-05-17T01:55:24.524Z,5.80
2023-05-17T01:57:55.818Z,5.64
2023-05-17T02:00:25.800Z,5.71
2023-05-17T02:02:52.493Z,5.58
2023-05-17T02:05:22.368Z,5.10
2023-05-17T02:07:48.941Z,5.57
2023-05-17T02:10:17.441Z,5.73
2023-05-17T02:12:44.127Z,5.62
2023-05-17T02:15:12.080Z,5.45
2023-05-17T02:17:40.641Z,5.23
2023-05-17T02:20:08.789Z,5.35
2023-05-17T02:22:35.845Z,5.93
2023-05-17T02:25:02.581Z,6.02
2023-05-17T02:27:29.378Z,6.22
2023-05-17T02:29:56.076Z,6.38
2023-05-17T02:32:23.000Z,6.35
2023-05-17T02:34:49.740Z,6.31
2023-05-17T02:37:16.375Z,6.87
2023-05-17T02:39:44.318Z,6.97
2023-05-17T02:42:11.284Z,7.03
2023-05-17T02:44:37.937Z,7.13
2023-05-17T02:47:04.846Z,7.22
2023-05-17T02:49:31.610Z,7.33
2023-05-17T02:51:58.324Z,7.30
2023-05-17T02:54:25.005Z,7.54
2023-05-17T02:56:51.797Z,7.44
2023-05-17T02:59:18.518Z,7.53
2023-05-17T03:01:45.189Z,7.04
2023-05-17T03:04:12.511Z,7.56
2023-05-17T03:06:40.211Z,7.75
2023-05-17T03:09:07.264Z,7.72
2023-05-17T03:11:34.582Z,7.69
2023-05-17T03:14:04.138Z,7.92
2023-05-17T03:16:31.700Z,8.01
2023-05-17T03:18:59.377Z,7.91
2023-05-17T03:21:26.075Z,7.75
2023-05-17T03:23:52.687Z,8.07
2023-05-17T03:26:19.837Z,8.32
2023-05-17T03:28:49.878Z,8.35
2023-05-17T03:31:18.876Z,8.40
2023-05-17T03:33:46.038Z,8.32
2023-05-17T03:36:13.942Z,6.88
2023-05-17T03:38:40.653Z,8.28
2023-05-17T03:41:08.521Z,8.18
2023-05-17T03:43:35.247Z,8.27
2023-05-17T03:46:01.949Z,8.39
2023-05-17T03:48:29.549Z,8.46
2023-05-17T03:50:56.219Z,8.62
2023-05-17T03:53:22.906Z,8.69
2023-05-17T03:55:49.598Z,8.74
2023-05-17T03:58:18.175Z,8.26
2023-05-17T04:00:44.790Z,8.70
2023-05-17T04:03:16.915Z,8.97
2023-05-17T04:05:46.547Z,8.94
2023-05-17T04:08:13.712Z,9.03
2023-05-17T04:10:42.139Z,8.61
2023-05-17T04:13:09.622Z,8.75
2023-05-17T04:15:37.598Z,9.32
2023-05-17T04:18:05.538Z,9.22
2023-05-17T04:20:32.326Z,9.09
2023-05-17T04:23:01.778Z,9.26
2023-05-17T04:25:31.007Z,9.29
2023-05-17T04:27:57.900Z,9.29
2023-05-17T04:30:25.834Z,8.91
2023-05-17T04:32:52.532Z,9.62
2023-05-17T04:35:19.281Z,9.56
2023-05-17T04:37:49.574Z,9.62
2023-05-17T04:40:21.328Z,9.76
2023-05-17T04:42:48.943Z,9.82
2023-05-17T04:45:17.634Z,9.79
2023-05-17T04:47:44.320Z,9.89
2023-05-17T04:50:11.584Z,9.78
2023-05-17T04:52:38.433Z,9.90
2023-05-17T04:55:05.665Z,9.94
2023-05-17T04:57:32.357Z,10.07
2023-05-17T05:00:06.215Z,10.24
2023-05-17T05:02:33.736Z,10.39
2023-05-17T05:05:00.971Z,10.41
2023-05-17T05:07:28.034Z,10.39
2023-05-17T05:09:54.925Z,10.36
2023-05-17T05:12:23.112Z,10.26
2023-05-17T05:14:49.844Z,9.73
2023-05-17T05:17:16.499Z,10.13
2023-05-17T05:19:43.243Z,9.99
2023-05-17T05:22:09.866Z,10.22
2023-05-17T05:24:38.160Z,10.28
2023-05-17T05:27:06.939Z,10.31
2023-05-17T05:29:33.869Z,9.44
2023-05-17T05:32:00.527Z,9.92
2023-05-17T05:34:28.531Z,10.52
2023-05-17T05:36:55.533Z,10.52
2023-05-17T05:39:22.563Z,10.14
2023-05-17T05:41:49.892Z,10.75
2023-05-17T05:44:16.601Z,11.31
2023-05-17T05:46:43.415Z,11.61
2023-05-17T05:49:10.392Z,12.04
2023-05-17T05:51:37.516Z,12.26
2023-05-17T05:54:04.182Z,12.69
2023-05-17T05:56:31.611Z,12.96
2023-05-17T05:58:58.244Z,12.95
2023-05-17T06:01:25.410Z,13.16
2023-05-17T06:03:52.038Z,13.17
2023-05-17T06:06:19.449Z,13.06
2023-05-17T06:08:47.282Z,12.87
2023-05-17T06:11:14.308Z,12.60
2023-05-17T06:13:40.918Z,13.30
2023-05-17T06:16:07.532Z,12.80
2023-05-17T06:18:34.168Z,13.06
2023-05-17T06:21:00.893Z,12.96
2023-05-17T06:23:27.500Z,13.70
2023-05-17T06:25:54.117Z,14.42
2023-05-17T06:28:20.747Z,14.76
2023-05-17T06:30:47.349Z,14.69
2023-05-17T06:33:14.070Z,14.60
2023-05-17T06:35:54.632Z,15.16
2023-05-17T06:38:22.128Z,15.50
2023-05-17T06:40:55.636Z,14.89
2023-05-17T06:43:22.299Z,15.03
2023-05-17T06:45:48.907Z,15.05
2023-05-17T06:48:16.214Z,14.60
2023-05-17T06:50:43.104Z,15.10
2023-05-17T06:53:09.701Z,15.04
2023-05-17T06:55:36.618Z,15.08
2023-05-17T06:58:03.270Z,14.26
2023-05-17T07:00:30.355Z,14.91
2023-05-17T07:02:57.265Z,14.82
2023-05-17T07:05:24.302Z,14.44
2023-05-17T07:07:50.964Z,14.32
2023-05-17T07:10:17.546Z,14.41
2023-05-17T07:12:44.174Z,14.28
2023-05-17T07:15:11.325Z,13.93
2023-05-17T07:17:38.097Z,13.90
2023-05-17T07:20:06.219Z,13.88
2023-05-17T07:22:33.068Z,14.96
2023-05-17T07:24:59.710Z,15.54
2023-05-17T07:27:26.336Z,16.03
2023-05-17T07:29:53.006Z,15.65
2023-05-17T07:32:19.577Z,15.53
2023-05-17T07:34:46.436Z,15.45
2023-05-17T07:37:13.143Z,15.48
2023-05-17T07:39:39.949Z,15.61
2023-05-17T07:42:07.049Z,15.41
2023-05-17T07:44:33.885Z,15.38
2023-05-17T07:47:00.633Z,15.38
2023-05-17T07:49:27.593Z,15.31
2023-05-17T07:51:55.506Z,15.05
2023-05-17T07:54:24.892Z,14.62
2023-05-17T07:56:53.186Z,14.96
2023-05-17T07:59:19.843Z,14.75
2023-05-17T08:01:46.626Z,14.03
2023-05-17T08:04:14.354Z,14.03
2023-05-17T08:06:41.881Z,14.26
2023-05-17T08:09:08.479Z,14.34
2023-05-17T08:11:35.405Z,14.64
2023-05-17T08:14:01.999Z,14.23
2023-05-17T08:16:28.611Z,14.74
2023-05-17T08:18:55.495Z,14.68
2023-05-17T08:21:22.945Z,14.70
2023-05-17T08:23:49.556Z,14.32
2023-05-17T08:26:16.199Z,14.19
2023-05-17T08:28:42.731Z,14.14
2023-05-17T08:31:09.290Z,13.89
2023-05-17T08:33:36.580Z,14.38
2023-05-17T08:36:07.858Z,14.91
2023-05-17T08:38:34.692Z,14.84
2023-05-17T08:41:02.499Z,14.99
2023-05-17T08:43:31.325Z,15.16
2023-05-17T08:45:59.155Z,16.05
2023-05-17T08:48:27.548Z,16.58
2023-05-17T08:50:56.327Z,17.67
2023-05-17T08:53:24.355Z,18.27
2023-05-17T08:55:52.278Z,18.59
2023-05-17T08:58:26.855Z,18.27
2023-05-17T09:00:54.812Z,18.85
2023-05-17T09:03:22.579Z,19.04
2023-05-17T09:05:53.521Z,20.07
2023-05-17T09:08:22.446Z,19.72
2023-05-17T09:10:50.139Z,20.07
2023-05-17T09:13:17.120Z,20.51
2023-05-17T09:15:47.823Z,20.23
2023-05-17T09:18:17.019Z,19.25
2023-05-17T09:20:51.534Z,18.91
2023-05-17T09:23:21.376Z,19.93
2023-05-17T09:25:49.075Z,20.37
2023-05-17T09:28:18.817Z,20.89
2023-05-17T09:30:48.375Z,21.63
2023-05-17T09:33:17.660Z,22.04
2023-05-17T09:35:45.561Z,21.56
2023-05-17T09:38:13.684Z,20.44
2023-05-17T09:40:45.094Z,19.98
2023-05-17T09:43:13.017Z,19.56
2023-05-17T09:45:40.200Z,20.32
2023-05-17T09:48:13.761Z,21.35
2023-05-17T09:50:49.545Z,21.38
2023-05-17T09:53:28.255Z,21.00
2023-05-17T09:55:59.799Z,21.43
2023-05-17T09:58:28.672Z,21.88
2023-05-17T10:01:03.625Z,21.20
2023-05-17T10:03:33.173Z,20.53
2023-05-17T10:06:03.769Z,19.94
2023-05-17T10:08:31.777Z,20.07
2023-05-17T10:11:03.433Z,20.37
2023-05-17T10:13:54.457Z,21.48
2023-05-17T10:16:23.460Z,21.85
2023-05-17T10:18:50.911Z,21.00
2023-05-17T10:21:18.613Z,20.60
2023-05-17T10:23:47.425Z,19.58
2023-05-17T10:26:16.132Z,18.94
2023-05-17T10:28:43.357Z,19.74
2023-05-17T10:31:10.223Z,21.01
2023-05-17T10:33:37.394Z,21.35
2023-05-17T10:36:06.562Z,21.28
2023-05-17T10:38:41.777Z,20.55
2023-05-17T10:41:15.033Z,21.09
2023-05-17T10:43:43.604Z,22.80
2023-05-17T10:46:16.399Z,23.49
2023-05-17T10:48:44.447Z,24.19
2023-05-17T10:51:12.024Z,24.60
2023-05-17T10:54:11.846Z,24.56
2023-05-17T10:56:47.276Z,24.20
2023-05-17T10:59:26.672Z,24.56
2023-05-17T11:02:04.498Z,24.17
2023-05-17T11:04:42.284Z,22.17
2023-05-17T11:07:27.914Z,22.35
2023-05-17T11:10:07.916Z,22.96
2023-05-17T11:12:37.607Z,22.12
2023-05-17T11:15:10.457Z,21.36
2023-05-17T11:17:51.346Z,19.92
2023-05-17T11:20:24.069Z,21.09
2023-05-17T11:23:05.020Z,21.67
2023-05-17T11:25:39.530Z,23.93
2023-05-17T11:28:08.792Z,23.52
2023-05-17T11:30:41.357Z,22.96
2023-05-17T11:33:20.393Z,23.58
2023-05-17T11:35:54.612Z,23.86
2023-05-17T11:38:30.303Z,24.00
2023-05-17T11:40:57.793Z,24.06
2023-05-17T11:43:27.240Z,24.84
2023-05-17T11:45:57.364Z,24.30
2023-05-17T11:48:26.104Z,24.13
2023-05-17T11:50:55.015Z,24.10
2023-05-17T11:53:22.009Z,25.33
2023-05-17T11:55:52.981Z,25.65
2023-05-17T11:58:24.150Z,25.45
2023-05-17T12:00:55.862Z,25.59
2023-05-17T12:03:22.457Z,25.96
2023-05-17T12:06:10.468Z,25.38
2023-05-17T12:08:39.228Z,25.45
2023-05-17T12:11:07.285Z,25.94
2023-05-17T12:13:35.612Z,25.63
2023-05-17T12:16:05.869Z,25.24
2023-05-17T12:18:37.893Z,24.76
2023-05-17T12:21:05.753Z,25.39
2023-05-17T12:23:33.635Z,26.38
2023-05-17T12:26:16.607Z,26.40
2023-05-17T12:28:46.260Z,26.86
2023-05-17T12:31:16.771Z,26.77
2023-05-17T12:33:45.342Z,25.92
2023-05-17T12:36:13.826Z,25.74
2023-05-17T12:38:42.342Z,26.27
2023-05-17T12:41:12.430Z,26.12
2023-05-17T12:43:40.149Z,26.17
2023-05-17T12:46:08.834Z,26.62
2023-05-17T12:48:40.543Z,27.67
2023-05-17T12:51:14.626Z,27.66
2023-05-17T12:53:44.941Z,26.80
2023-05-17T12:56:16.911Z,27.01
2023-05-17T12:58:44.525Z,27.03
2023-05-17T13:01:14.370Z,26.95
2023-05-17T13:03:41.796Z,26.91
2023-05-17T13:06:10.253Z,27.54
2023-05-17T13:08:37.042Z,26.98
2023-05-17T13:11:13.539Z,26.81
2023-05-17T13:13:41.506Z,26.87
2023-05-17T13:16:08.444Z,27.08
2023-05-17T13:18:52.015Z,27.09
2023-05-17T13:21:20.424Z,27.66
2023-05-17T13:23:48.852Z,26.97
2023-05-17T13:26:17.330Z,27.45
2023-05-17T13:28:44.614Z,27.62
2023-05-17T13:31:11.435Z,27.53
2023-05-17T13:33:38.418Z,28.34
2023-05-17T13:36:05.520Z,27.94
2023-05-17T13:38:32.089Z,28.29
2023-05-17T13:40:58.705Z,28.60
2023-05-17T13:43:25.294Z,28.48
2023-05-17T13:45:56.688Z,28.71
2023-05-17T13:48:23.464Z,28.91
2023-05-17T13:50:50.971Z,28.79
2023-05-17T13:53:18.085Z,28.30
2023-05-17T13:55:44.933Z,28.34
2023-05-17T13:58:11.729Z,28.87
2023-05-17T14:00:41.275Z,29.34
2023-05-17T14:03:08.498Z,29.35
2023-05-17T14:05:36.545Z,28.89
2023-05-17T14:08:03.531Z,28.42
2023-05-17T14:10:30.610Z,26.36
2023-05-17T14:12:57.393Z,25.26
2023-05-17T14:15:24.599Z,24.42
2023-05-17T14:17:51.589Z,23.89
2023-05-17T14:20:18.511Z,26.11
2023-05-17T14:22:45.848Z,26.55
2023-05-17T14:25:12.486Z,26.84
2023-05-17T14:27:39.084Z,25.20
2023-05-17T14:30:06.327Z,24.91
2023-05-17T14:32:33.002Z,23.73
2023-05-17T14:34:59.598Z,23.51
2023-05-17T14:37:26.223Z,23.78
2023-05-17T14:40:05.776Z,23.25
2023-05-17T14:42:33.706Z,23.29
2023-05-17T14:45:00.533Z,23.22
2023-05-17T14:47:27.246Z,23.21
2023-05-17T14:49:53.813Z,22.87
2023-05-17T14:52:20.692Z,22.40
2023-05-17T14:54:47.341Z,23.03
2023-05-17T14:57:13.984Z,23.52
2023-05-17T14:59:43.206Z,22.81
2023-05-17T15:02:11.639Z,22.97
2023-05-17T15:04:38.550Z,22.72
2023-05-17T15:07:05.986Z,22.36
2023-05-17T15:09:32.664Z,21.71
2023-05-17T15:11:59.271Z,21.12
2023-05-17T15:14:27.041Z,21.85
2023-05-17T15:16:53.672Z,20.63
2023-05-17T15:19:20.476Z,20.11
2023-05-17T15:21:47.215Z,19.22
2023-05-17T15:24:15.953Z,18.99
2023-05-17T15:26:44.428Z,19.33
2023-05-17T15:29:11.615Z,19.35
2023-05-17T15:31:38.230Z,19.14
2023-05-17T15:34:04.957Z,20.37
2023-05-17T15:36:32.541Z,20.90
2023-05-17T15:38:59.175Z,19.93
2023-05-17T15:41:29.753Z,19.53
2023-05-17T15:43:57.159Z,19.06
2023-05-17T15:46:23.853Z,18.66
2023-05-17T15:48:50.392Z,19.60
2023-05-17T15:51:17.111Z,19.45
2023-05-17T15:53:43.763Z,19.36
2023-05-17T15:56:11.305Z,19.40
2023-05-17T15:58:37.864Z,20.61
2023-05-17T16:01:05.618Z,22.92
2023-05-17T16:03:33.086Z,23.38
2023-05-17T16:05:59.810Z,24.80
2023-05-17T16:08:26.505Z,26.16
2023-05-17T16:10:53.113Z,26.59
2023-05-17T16:13:19.709Z,26.68
2023-05-17T16:15:46.466Z,26.73
2023-05-17T16:18:15.010Z,27.01
2023-05-17T16:20:42.594Z,26.75
2023-05-17T16:23:09.573Z,26.83
2023-05-17T16:25:36.573Z,26.50
2023-05-17T16:28:03.230Z,25.58
2023-05-17T16:30:29.893Z,23.72
2023-05-17T16:32:56.546Z,22.86
2023-05-17T16:35:23.177Z,22.26
2023-05-17T16:37:50.245Z,21.82
2023-05-17T16:40:16.975Z,21.36
2023-05-17T16:42:44.518Z,21.08
2023-05-17T16:45:11.448Z,20.91
2023-05-17T16:47:38.175Z,21.32
2023-05-17T16:50:06.622Z,21.24
2023-05-17T16:52:33.236Z,20.53
2023-05-17T16:55:03.358Z,19.96
2023-05-17T16:57:34.026Z,20.03
2023-05-17T17:00:01.091Z,19.57
2023-05-17T17:02:28.535Z,20.37
2023-05-17T17:04:55.606Z,20.47
2023-05-17T17:07:22.220Z,19.69
2023-05-17T17:09:48.778Z,19.23
2023-05-17T17:12:24.046Z,18.83
2023-05-17T17:14:52.429Z,18.97
2023-05-17T17:17:18.985Z,19.14
2023-05-17T17:19:45.539Z,19.05
2023-05-17T17:22:14.184Z,18.46
2023-05-17T17:24:40.832Z,17.47
2023-05-17T17:27:07.455Z,17.34
2023-05-17T17:29:34.055Z,17.33
2023-05-17T17:32:00.994Z,16.98
2023-05-17T17:34:27.719Z,16.49
2023-05-17T17:36:54.602Z,16.70
2023-05-17T17:39:21.264Z,16.53
2023-05-17T17:41:47.964Z,16.37
2023-05-17T17:44:14.497Z,16.18
2023-05-17T17:46:41.134Z,15.78
2023-05-17T17:49:07.800Z,15.89
2023-05-17T17:51:34.419Z,15.55
2023-05-17T17:54:03.626Z,15.48
2023-05-17T17:56:30.424Z,15.37
2023-05-17T17:58:57.169Z,14.47
2023-05-17T18:01:23.961Z,15.24
2023-05-17T18:03:50.615Z,15.15
2023-05-17T18:06:17.197Z,14.49
2023-05-17T18:08:43.840Z,15.13
2023-05-17T18:11:10.435Z,15.41
2023-05-17T18:13:37.150Z,15.05
2023-05-17T18:16:04.166Z,15.70
2023-05-17T18:18:30.755Z,15.61
2023-05-17T18:20:57.556Z,15.55
2023-05-17T18:23:24.755Z,15.90
2023-05-17T18:25:51.475Z,15.97
2023-05-17T18:28:21.682Z,15.90
2023-05-17T18:30:58.118Z,15.16
2023-05-17T18:33:25.306Z,14.67
2023-05-17T18:35:51.943Z,14.53
2023-05-17T18:38:18.888Z,14.71
2023-05-17T18:40:45.672Z,14.67
2023-05-17T18:43:12.911Z,14.28
2023-05-17T18:45:39.579Z,13.99
2023-05-17T18:48:06.410Z,13.98
2023-05-17T18:50:33.239Z,13.46
2023-05-17T18:53:00.573Z,13.66
2023-05-17T18:55:27.237Z,13.46
2023-05-17T18:57:54.031Z,13.30
2023-05-17T19:00:21.188Z,13.07
2023-05-17T19:02:48.172Z,12.80
2023-05-17T19:05:14.970Z,12.24
2023-05-17T19:07:41.504Z,12.64
2023-05-17T19:10:08.563Z,12.46
2023-05-17T19:12:35.582Z,12.28
2023-05-17T19:15:03.863Z,11.60
2023-05-17T19:17:30.816Z,12.02
2023-05-17T19:19:57.551Z,11.74
2023-05-17T19:22:24.143Z,11.70
2023-05-17T19:24:50.797Z,10.95
2023-05-17T19:27:19.696Z,11.33
2023-05-17T19:29:47.764Z,11.35
2023-05-17T19:32:14.452Z,11.21
2023-05-17T19:34:41.352Z,11.01
2023-05-17T19:37:07.964Z,11.06
2023-05-17T19:39:34.538Z,10.92
2023-05-17T19:42:01.185Z,10.71
2023-05-17T19:44:27.746Z,10.83
2023-05-17T19:46:54.465Z,10.71
2023-05-17T19:49:21.469Z,10.00
2023-05-17T19:51:48.184Z,10.08
2023-05-17T19:54:14.905Z,10.53
2023-05-17T19:56:41.591Z,10.52
2023-05-17T19:59:08.274Z,9.98
2023-05-17T20:01:34.959Z,10.39
2023-05-17T20:04:01.717Z,10.39
2023-05-17T20:06:28.492Z,9.74
2023-05-17T20:08:55.103Z,9.72
2023-05-17T20:11:21.903Z,10.25
2023-05-17T20:13:48.484Z,10.04
2023-05-17T20:16:15.140Z,10.16
2023-05-17T20:18:43.444Z,9.38
2023-05-17T20:21:12.519Z,9.51
2023-05-17T20:23:40.446Z,9.87
2023-05-17T20:26:07.112Z,9.66
2023-05-17T20:28:33.772Z,9.69
2023-05-17T20:31:00.800Z,9.90
2023-05-17T20:33:27.572Z,9.84
2023-05-17T20:35:54.212Z,9.24
2023-05-17T20:38:21.543Z,9.85
2023-05-17T20:40:48.261Z,9.57
2023-05-17T20:43:16.705Z,9.66
2023-05-17T20:45:43.569Z,9.61
2023-05-17T20:48:10.318Z,9.62
2023-05-17T20:50:37.118Z,9.57
2023-05-17T20:53:03.808Z,9.47
2023-05-17T20:55:30.480Z,9.57
2023-05-17T20:57:57.626Z,9.43
2023-05-17T21:00:24.690Z,9.53
2023-05-17T21:02:51.502Z,9.39
2023-05-17T21:05:18.181Z,9.41
2023-05-17T21:07:46.655Z,8.70
2023-05-17T21:10:13.381Z,8.98
2023-05-17T21:12:40.099Z,9.11
2023-05-17T21:15:15.804Z,8.89
2023-05-17T21:17:45.338Z,9.10
2023-05-17T21:20:12.291Z,9.06
2023-05-17T21:22:38.941Z,9.17
2023-05-17T21:25:06.125Z,8.98
2023-05-17T21:27:33.946Z,8.46
2023-05-17T21:30:01.503Z,8.57
2023-05-17T21:32:28.155Z,8.89
2023-05-17T21:34:54.714Z,9.06
2023-05-17T21:37:21.411Z,8.97
2023-05-17T21:39:47.996Z,8.98
2023-05-17T21:42:14.566Z,8.88
2023-05-17T21:44:41.181Z,8.22
2023-05-17T21:47:07.925Z,8.83
2023-05-17T21:49:34.720Z,8.69
2023-05-17T21:52:01.314Z,8.83
2023-05-17T21:54:27.837Z,8.54
2023-05-17T21:56:54.411Z,8.69
2023-05-17T21:59:21.005Z,8.70
2023-05-17T22:01:47.676Z,8.67
2023-05-17T22:04:14.315Z,8.63
2023-05-17T22:06:40.936Z,8.60
2023-05-17T22:09:09.385Z,8.53
2023-05-17T22:11:38.369Z,8.59
2023-05-17T22:14:07.966Z,8.15
2023-05-17T22:16:36.064Z,8.60
2023-05-17T22:19:03.882Z,8.38
2023-05-17T22:21:32.120Z,8.01
2023-05-17T22:23:59.400Z,8.45
2023-05-17T22:26:27.662Z,8.36
2023-05-17T22:28:54.612Z,8.28
2023-05-17T22:31:21.433Z,8.32
2023-05-17T22:33:48.110Z,7.83
2023-05-17T22:36:14.787Z,7.76
2023-05-17T22:38:42.657Z,8.30
2023-05-17T22:41:10.723Z,8.21
2023-05-17T22:43:37.921Z,8.28
2023-05-17T22:46:05.019Z,8.09
2023-05-17T22:48:32.362Z,7.94
2023-05-17T22:51:00.810Z,8.19
2023-05-17T22:53:29.058Z,7.95
2023-05-17T22:55:56.102Z,8.06
2023-05-17T22:58:25.839Z,7.68
2023-05-17T23:00:52.728Z,8.04
2023-05-17T23:03:19.604Z,7.75
2023-05-17T23:05:46.303Z,7.81
2023-05-17T23:08:15.426Z,7.95
2023-05-17T23:10:45.767Z,7.76
2023-05-17T23:13:12.845Z,7.77
2023-05-17T23:15:40.632Z,7.73
2023-05-17T23:18:08.493Z,7.26
2023-05-17T23:20:35.173Z,7.73
2023-05-17T23:23:02.070Z,7.74
2023-05-17T23:25:28.934Z,7.68
2023-05-17T23:27:58.049Z,7.61
2023-05-17T23:30:25.107Z,7.15
2023-05-17T23:32:52.560Z,7.68
2023-05-17T23:35:19.145Z,7.46
2023-05-17T23:37:45.808Z,7.60
2023-05-17T23:40:14.616Z,7.61
2023-05-17T23:42:41.771Z,7.52
2023-05-17T23:45:09.809Z,7.47
2023-05-17T23:47:40.813Z,7.54
2023-05-17T23:50:11.975Z,7.36
2023-05-17T23:52:39.631Z,7.31
2023-05-17T23:55:07.435Z,7.28
2023-05-17T23:57:35.186Z,7.43
